sensor_id;sensor_type;location;lat;lon;timestamp;pressure;altitude;pressure_sealevel;temperature;humidity
21877;BME280;11103;43.788;23.710;2023-02-14T00:02:17;147820.53;;;5.74;100.00
21877;BME280;11103;43.788;23.710;2023-02-14T00:04:42;147861.34;;;5.90;100.00
21877;BME280;11103;43.788;23.710;2023-02-14T00:07:10;147881.75;;;5.98;100.00
21877;BME280;11103;43.788;23.710;2023-02-14T00:09:36;147889.41;;;6.02;100.00
21877;BME280;11103;43.788;23.710;2023-02-14T00:12:01;147858.84;;;5.89;100.00
21877;BME280;11103;43.788;23.710;2023-02-14T00:14:27;147853.69;;;5.87;100.00
21877;BME280;11103;43.788;23.710;2023-02-14T00:17:11;147869.00;;;5.93;100.00
21877;BME280;11103;43.788;23.710;2023-02-14T00:19:37;147874.09;;;5.95;100.00
21877;BME280;11103;43.788;23.710;2023-02-14T00:22:03;147877.94;;;5.97;100.00
21877;BME280;11103;43.788;23.710;2023-02-14T00:24:28;147879.22;;;5.97;100.00
21877;BME280;11103;43.788;23.710;2023-02-14T00:26:54;147897.06;;;6.05;100.00
21877;BME280;11103;43.788;23.710;2023-02-14T00:29:22;147907.28;;;6.09;100.00
21877;BME280;11103;43.788;23.710;2023-02-14T00:31:48;147902.13;;;6.07;100.00
21877;BME280;11103;43.788;23.710;2023-02-14T00:34:14;147927.66;;;6.17;100.00
21877;BME280;11103;43.788;23.710;2023-02-14T00:36:40;147917.44;;;6.13;100.00
21877;BME280;11103;43.788;23.710;2023-02-14T00:39:08;147916.16;;;6.12;100.00
21877;BME280;11103;43.788;23.710;2023-02-14T00:41:33;147907.28;;;6.09;100.00
21877;BME280;11103;43.788;23.710;2023-02-14T00:43:59;147914.88;;;6.12;100.00
21877;BME280;11103;43.788;23.710;2023-02-14T00:46:25;147904.69;;;6.08;100.00
21877;BME280;11103;43.788;23.710;2023-02-14T00:48:51;147889.41;;;6.02;100.00
21877;BME280;11103;43.788;23.710;2023-02-14T00:51:17;147902.13;;;6.07;100.00
21877;BME280;11103;43.788;23.710;2023-02-14T00:53:45;147903.41;;;6.07;100.00
21877;BME280;11103;43.788;23.710;2023-02-14T00:56:11;147904.69;;;6.08;100.00
21877;BME280;11103;43.788;23.710;2023-02-14T00:58:36;147888.13;;;6.01;100.00
21877;BME280;11103;43.788;23.710;2023-02-14T01:01:02;147899.63;;;6.06;100.00
21877;BME280;11103;43.788;23.710;2023-02-14T01:03:28;147889.41;;;6.02;100.00
21877;BME280;11103;43.788;23.710;2023-02-14T01:05:53;147879.22;;;5.97;100.00
21877;BME280;11103;43.788;23.710;2023-02-14T01:08:19;147893.25;;;6.03;100.00
21877;BME280;11103;43.788;23.710;2023-02-14T01:10:45;147843.47;;;5.83;100.00
21877;BME280;11103;43.788;23.710;2023-02-14T01:13:11;147876.66;;;5.96;100.00
21877;BME280;11103;43.788;23.710;2023-02-14T01:15:45;147907.28;;;6.09;100.00
21877;BME280;11103;43.788;23.710;2023-02-14T01:18:11;147871.56;;;5.94;100.00
21877;BME280;11103;43.788;23.710;2023-02-14T01:20:37;147872.84;;;5.95;100.00
21877;BME280;11103;43.788;23.710;2023-02-14T01:23:02;147823.09;;;5.75;100.00
21877;BME280;11103;43.788;23.710;2023-02-14T01:25:28;147863.91;;;5.91;100.00
21877;BME280;11103;43.788;23.710;2023-02-14T01:27:53;147847.34;;;5.85;100.00
21877;BME280;11103;43.788;23.710;2023-02-14T01:30:19;147833.25;;;5.79;100.00
21877;BME280;11103;43.788;23.710;2023-02-14T01:32:44;147828.19;;;5.77;100.00
21877;BME280;11103;43.788;23.710;2023-02-14T01:35:10;147848.63;;;5.85;100.00
21877;BME280;11103;43.788;23.710;2023-02-14T01:37:36;147818.00;;;5.73;100.00
21877;BME280;11103;43.788;23.710;2023-02-14T01:40:03;147840.91;;;5.82;100.00
21877;BME280;11103;43.788;23.710;2023-02-14T01:42:28;147828.19;;;5.77;100.00
21877;BME280;11103;43.788;23.710;2023-02-14T01:44:57;147846.00;;;5.84;100.00
21877;BME280;11103;43.788;23.710;2023-02-14T01:47:25;147837.13;;;5.81;100.00
21877;BME280;11103;43.788;23.710;2023-02-14T01:49:59;147833.25;;;5.79;100.00
21877;BME280;11103;43.788;23.710;2023-02-14T01:52:32;147830.75;;;5.78;100.00
21877;BME280;11103;43.788;23.710;2023-02-14T01:55:03;147830.75;;;5.78;100.00
21877;BME280;11103;43.788;23.710;2023-02-14T01:57:36;147833.25;;;5.79;100.00
21877;BME280;11103;43.788;23.710;2023-02-14T02:00:06;147800.13;;;5.66;100.00
21877;BME280;11103;43.788;23.710;2023-02-14T02:02:51;147824.38;;;5.76;100.00
21877;BME280;11103;43.788;23.710;2023-02-14T02:05:17;147823.09;;;5.75;100.00
21877;BME280;11103;43.788;23.710;2023-02-14T02:07:49;147807.78;;;5.69;100.00
21877;BME280;11103;43.788;23.710;2023-02-14T02:10:14;147805.22;;;5.68;100.00
21877;BME280;11103;43.788;23.710;2023-02-14T02:12:40;147783.59;;;5.60;100.00
21877;BME280;11103;43.788;23.710;2023-02-14T02:15:06;147795.06;;;5.64;100.00
21877;BME280;11103;43.788;23.710;2023-02-14T02:31:35;147798.84;;;5.66;100.00
21877;BME280;11103;43.788;23.710;2023-02-14T02:34:09;147801.41;;;5.67;100.00
21877;BME280;11103;43.788;23.710;2023-02-14T02:39:47;147787.41;;;5.61;100.00
21877;BME280;11103;43.788;23.710;2023-02-14T02:47:51;147779.75;;;5.58;100.00
21877;BME280;11103;43.788;23.710;2023-02-14T02:59:34;147789.97;;;5.62;100.00
21877;BME280;11103;43.788;23.710;2023-02-14T03:02:20;147789.97;;;5.62;100.00
21877;BME280;11103;43.788;23.710;2023-02-14T03:04:56;147772.09;;;5.55;100.00
21877;BME280;11103;43.788;23.710;2023-02-14T03:07:34;147789.97;;;5.62;100.00
21877;BME280;11103;43.788;23.710;2023-02-14T03:10:14;147765.75;;;5.53;100.00
21877;BME280;11103;43.788;23.710;2023-02-14T03:18:43;147779.75;;;5.58;100.00
21877;BME280;11103;43.788;23.710;2023-02-14T03:21:54;147770.81;;;5.55;100.00
21877;BME280;11103;43.788;23.710;2023-02-14T03:24:29;147756.81;;;5.49;100.00
21877;BME280;11103;43.788;23.710;2023-02-14T03:27:08;147746.63;;;5.45;100.00
21877;BME280;11103;43.788;23.710;2023-02-14T03:35:34;147769.59;;;5.54;100.00
21877;BME280;11103;43.788;23.710;2023-02-14T03:38:12;147788.69;;;5.62;100.00
21877;BME280;11103;43.788;23.710;2023-02-14T03:40:49;147769.59;;;5.54;100.00
21877;BME280;11103;43.788;23.710;2023-02-14T03:43:25;147772.09;;;5.55;100.00
21877;BME280;11103;43.788;23.710;2023-02-14T03:45:58;147769.59;;;5.54;100.00
21877;BME280;11103;43.788;23.710;2023-02-14T03:48:27;147759.38;;;5.50;100.00
21877;BME280;11103;43.788;23.710;2023-02-14T03:50:54;147755.56;;;5.49;100.00
21877;BME280;11103;43.788;23.710;2023-02-14T03:53:27;147774.66;;;5.56;100.00
21877;BME280;11103;43.788;23.710;2023-02-14T03:58:32;147759.38;;;5.50;100.00
21877;BME280;11103;43.788;23.710;2023-02-14T04:01:07;147788.69;;;5.62;100.00
21877;BME280;11103;43.788;23.710;2023-02-14T04:03:38;147788.69;;;5.62;100.00
21877;BME280;11103;43.788;23.710;2023-02-14T04:06:04;147754.28;;;5.48;100.00
21877;BME280;11103;43.788;23.710;2023-02-14T04:08:30;147767.03;;;5.53;100.00
21877;BME280;11103;43.788;23.710;2023-02-14T04:10:58;147767.03;;;5.53;100.00
21877;BME280;11103;43.788;23.710;2023-02-14T04:13:24;147754.28;;;5.48;100.00
21877;BME280;11103;43.788;23.710;2023-02-14T04:15:50;147750.44;;;5.47;100.00
21877;BME280;11103;43.788;23.710;2023-02-14T04:18:15;147733.91;;;5.40;100.00
21877;BME280;11103;43.788;23.710;2023-02-14T04:20:59;147731.34;;;5.39;100.00
21877;BME280;11103;43.788;23.710;2023-02-14T04:23:24;147672.78;;;5.16;100.00
21877;BME280;11103;43.788;23.710;2023-02-14T04:25:50;147747.91;;;5.46;100.00
21877;BME280;11103;43.788;23.710;2023-02-14T04:28:15;147732.63;;;5.39;100.00
21877;BME280;11103;43.788;23.710;2023-02-14T04:30:41;147700.78;;;5.27;100.00
21877;BME280;11103;43.788;23.710;2023-02-14T04:33:06;147742.78;;;5.43;100.00
21877;BME280;11103;43.788;23.710;2023-02-14T04:35:33;147741.56;;;5.43;100.00
21877;BME280;11103;43.788;23.710;2023-02-14T04:38:00;147726.25;;;5.37;100.00
21877;BME280;11103;43.788;23.710;2023-02-14T04:40:26;147726.25;;;5.37;100.00
21877;BME280;11103;43.788;23.710;2023-02-14T04:42:51;147728.81;;;5.38;100.00
21877;BME280;11103;43.788;23.710;2023-02-14T04:45:17;147744.06;;;5.44;100.00
21877;BME280;11103;43.788;23.710;2023-02-14T04:47:42;147728.81;;;5.38;100.00
21877;BME280;11103;43.788;23.710;2023-02-14T04:50:08;147717.31;;;5.33;100.00
21877;BME280;11103;43.788;23.710;2023-02-14T04:52:33;147722.41;;;5.35;100.00
21877;BME280;11103;43.788;23.710;2023-02-14T04:54:59;147716.03;;;5.33;100.00
21877;BME280;11103;43.788;23.710;2023-02-14T04:57:24;147712.25;;;5.31;100.00
21877;BME280;11103;43.788;23.710;2023-02-14T04:59:49;147710.97;;;5.31;100.00
21877;BME280;11103;43.788;23.710;2023-02-14T05:02:15;147694.44;;;5.24;100.00
21877;BME280;11103;43.788;23.710;2023-02-14T05:04:40;147705.88;;;5.29;100.00
21877;BME280;11103;43.788;23.710;2023-02-14T05:07:06;147693.16;;;5.24;100.00
21877;BME280;11103;43.788;23.710;2023-02-14T05:09:31;147690.56;;;5.23;100.00
21877;BME280;11103;43.788;23.710;2023-02-14T05:11:57;147677.84;;;5.18;100.00
21877;BME280;11103;43.788;23.710;2023-02-14T05:14:22;147671.50;;;5.15;100.00
21877;BME280;11103;43.788;23.710;2023-02-14T05:16:47;147657.47;;;5.10;100.00
21877;BME280;11103;43.788;23.710;2023-02-14T05:19:13;147677.84;;;5.18;100.00
21877;BME280;11103;43.788;23.710;2023-02-14T05:21:38;147681.66;;;5.19;100.00
21877;BME280;11103;43.788;23.710;2023-02-14T05:24:04;147689.28;;;5.22;100.00
21877;BME280;11103;43.788;23.710;2023-02-14T05:26:30;147676.56;;;5.17;100.00
21877;BME280;11103;43.788;23.710;2023-02-14T05:28:56;147694.44;;;5.24;100.00
21877;BME280;11103;43.788;23.710;2023-02-14T05:31:21;147658.75;;;5.10;100.00
21877;BME280;11103;43.788;23.710;2023-02-14T05:33:47;147698.22;;;5.26;100.00
21877;BME280;11103;43.788;23.710;2023-02-14T05:36:12;147700.78;;;5.27;100.00
21877;BME280;11103;43.788;23.710;2023-02-14T05:38:38;147674.06;;;5.16;100.00
21877;BME280;11103;43.788;23.710;2023-02-14T05:41:03;147723.69;;;5.36;100.00
21877;BME280;11103;43.788;23.710;2023-02-14T05:43:29;147749.19;;;5.46;100.00
21877;BME280;11103;43.788;23.710;2023-02-14T05:45:55;147786.13;;;5.61;100.00
21877;BME280;11103;43.788;23.710;2023-02-14T05:48:21;147819.25;;;5.74;100.00
21877;BME280;11103;43.788;23.710;2023-02-14T05:50:47;147842.19;;;5.83;100.00
21877;BME280;11103;43.788;23.710;2023-02-14T05:53:12;147840.91;;;5.82;100.00
21877;BME280;11103;43.788;23.710;2023-02-14T05:55:38;147875.38;;;5.96;100.00
21877;BME280;11103;43.788;23.710;2023-02-14T05:58:03;147858.84;;;5.89;100.00
21877;BME280;11103;43.788;23.710;2023-02-14T06:00:29;147945.50;;;6.24;100.00
21877;BME280;11103;43.788;23.710;2023-02-14T06:02:55;147970.97;;;6.34;100.00
21877;BME280;11103;43.788;23.710;2023-02-14T06:05:20;148022.00;;;6.54;100.00
21877;BME280;11103;43.788;23.710;2023-02-14T06:07:49;148120.22;;;6.93;100.00
21877;BME280;11103;43.788;23.710;2023-02-14T06:10:19;148244.00;;;7.42;100.00
21877;BME280;11103;43.788;23.710;2023-02-14T06:12:46;148407.38;;;8.06;100.00
21877;BME280;11103;43.788;23.710;2023-02-14T06:15:12;148501.94;;;8.44;100.00
21877;BME280;11103;43.788;23.710;2023-02-14T06:17:38;148596.47;;;8.81;100.00
21877;BME280;11103;43.788;23.710;2023-02-14T06:20:03;148553.06;;;8.64;100.00
21877;BME280;11103;43.788;23.710;2023-02-14T06:22:29;148408.69;;;8.07;100.00
21877;BME280;11103;43.788;23.710;2023-02-14T06:24:54;148312.91;;;7.69;100.00
21877;BME280;11103;43.788;23.710;2023-02-14T06:27:20;148254.19;;;7.46;100.00
21877;BME280;11103;43.788;23.710;2023-02-14T06:29:45;148187.84;;;7.19;100.00
21877;BME280;11103;43.788;23.710;2023-02-14T06:32:10;148164.84;;;7.10;100.00
21877;BME280;11103;43.788;23.710;2023-02-14T06:34:36;148136.78;;;6.99;100.00
21877;BME280;11103;43.788;23.710;2023-02-14T06:37:01;148144.44;;;7.02;100.00
21877;BME280;11103;43.788;23.710;2023-02-14T06:39:27;148134.25;;;6.98;100.00
21877;BME280;11103;43.788;23.710;2023-02-14T06:41:52;148139.34;;;7.00;100.00
21877;BME280;11103;43.788;23.710;2023-02-14T06:44:18;148159.75;;;7.08;100.00
21877;BME280;11103;43.788;23.710;2023-02-14T06:46:43;148182.69;;;7.17;100.00
21877;BME280;11103;43.788;23.710;2023-02-14T06:49:09;148196.72;;;7.23;100.00
21877;BME280;11103;43.788;23.710;2023-02-14T06:51:35;148203.09;;;7.26;100.00
21877;BME280;11103;43.788;23.710;2023-02-14T06:54:00;148198.03;;;7.24;100.00
21877;BME280;11103;43.788;23.710;2023-02-14T06:56:26;148201.88;;;7.25;100.00
21877;BME280;11103;43.788;23.710;2023-02-14T06:58:52;148210.78;;;7.29;100.00
21877;BME280;11103;43.788;23.710;2023-02-14T07:01:17;148226.09;;;7.35;100.00
21877;BME280;11103;43.788;23.710;2023-02-14T07:03:43;148241.44;;;7.41;100.00
21877;BME280;11103;43.788;23.710;2023-02-14T07:06:08;148218.44;;;7.32;100.00
21877;BME280;11103;43.788;23.710;2023-02-14T07:08:33;148233.75;;;7.38;100.00
21877;BME280;11103;43.788;23.710;2023-02-14T07:10:59;148251.59;;;7.45;100.00
21877;BME280;11103;43.788;23.710;2023-02-14T07:13:24;148215.91;;;7.31;100.00
21877;BME280;11103;43.788;23.710;2023-02-14T07:15:50;148251.59;;;7.45;100.00
21877;BME280;11103;43.788;23.710;2023-02-14T07:18:15;148249.09;;;7.44;100.00
21877;BME280;11103;43.788;23.710;2023-02-14T07:20:41;148238.84;;;7.40;100.00
21877;BME280;11103;43.788;23.710;2023-02-14T07:23:06;148261.84;;;7.49;100.00
21877;BME280;11103;43.788;23.710;2023-02-14T07:25:32;148247.81;;;7.43;100.00
21877;BME280;11103;43.788;23.710;2023-02-14T07:27:57;148254.19;;;7.46;100.00
21877;BME280;11103;43.788;23.710;2023-02-14T07:30:23;148266.94;;;7.51;100.00
21877;BME280;11103;43.788;23.710;2023-02-14T07:32:49;148282.25;;;7.57;100.00
21877;BME280;11103;43.788;23.710;2023-02-14T07:35:14;148295.03;;;7.62;100.00
21877;BME280;11103;43.788;23.710;2023-02-14T07:37:40;148297.59;;;7.63;100.00
21877;BME280;11103;43.788;23.710;2023-02-14T07:40:06;148298.88;;;7.63;100.00
21877;BME280;11103;43.788;23.710;2023-02-14T07:42:32;148309.06;;;7.67;100.00
21877;BME280;11103;43.788;23.710;2023-02-14T07:44:57;148323.09;;;7.73;100.00
21877;BME280;11103;43.788;23.710;2023-02-14T07:47:23;148346.09;;;7.82;100.00
21877;BME280;11103;43.788;23.710;2023-02-14T07:49:49;148340.97;;;7.80;100.00
21877;BME280;11103;43.788;23.710;2023-02-14T07:52:15;148348.63;;;7.83;100.00
21877;BME280;11103;43.788;23.710;2023-02-14T07:54:40;148361.38;;;7.88;100.00
21877;BME280;11103;43.788;23.710;2023-02-14T07:57:06;148361.38;;;7.88;100.00
21877;BME280;11103;43.788;23.710;2023-02-14T07:59:31;148383.09;;;7.97;100.00
21877;BME280;11103;43.788;23.710;2023-02-14T08:01:57;148408.69;;;8.07;100.00
21877;BME280;11103;43.788;23.710;2023-02-14T08:04:22;148392.06;;;8.00;100.00
21877;BME280;11103;43.788;23.710;2023-02-14T08:06:50;148430.34;;;8.15;100.00
21877;BME280;11103;43.788;23.710;2023-02-14T08:09:16;148420.16;;;8.11;100.00
21877;BME280;11103;43.788;23.710;2023-02-14T08:11:53;148435.50;;;8.17;100.00
21877;BME280;11103;43.788;23.710;2023-02-14T08:14:37;148445.69;;;8.21;100.00
21877;BME280;11103;43.788;23.710;2023-02-14T08:17:03;148466.16;;;8.29;100.00
21877;BME280;11103;43.788;23.710;2023-02-14T08:19:29;148489.19;;;8.38;100.00
21877;BME280;11103;43.788;23.710;2023-02-14T08:21:54;148501.94;;;8.44;100.00
21877;BME280;11103;43.788;23.710;2023-02-14T08:24:20;148495.56;;;8.41;100.00
21877;BME280;11103;43.788;23.710;2023-02-14T08:26:45;148505.81;;;8.45;100.00
21877;BME280;11103;43.788;23.710;2023-02-14T08:29:11;148475.13;;;8.33;100.00
21877;BME280;11103;43.788;23.710;2023-02-14T08:31:36;148519.81;;;8.51;100.00
21877;BME280;11103;43.788;23.710;2023-02-14T08:34:05;148549.19;;;8.62;100.00
21877;BME280;11103;43.788;23.710;2023-02-14T08:36:30;148535.16;;;8.57;100.00
21877;BME280;11103;43.788;23.710;2023-02-14T08:38:56;148554.28;;;8.64;100.00
21877;BME280;11103;43.788;23.710;2023-02-14T08:41:22;148579.88;;;8.74;100.00
21877;BME280;11103;43.788;23.710;2023-02-14T08:43:48;148573.50;;;8.72;100.00
21877;BME280;11103;43.788;23.710;2023-02-14T08:46:13;148570.94;;;8.71;100.00
21877;BME280;11103;43.788;23.710;2023-02-14T08:48:41;148576.03;;;8.73;100.00
21877;BME280;11103;43.788;23.710;2023-02-14T08:51:09;148650.19;;;9.02;100.00
21877;BME280;11103;43.788;23.710;2023-02-14T08:53:35;148625.88;;;8.92;100.00
21877;BME280;11103;43.788;23.710;2023-02-14T08:56:06;148673.16;;;9.11;100.00
21877;BME280;11103;43.788;23.710;2023-02-14T08:58:32;148696.19;;;9.20;100.00
21877;BME280;11103;43.788;23.710;2023-02-14T09:01:00;148691.09;;;9.18;100.00
21877;BME280;11103;43.788;23.710;2023-02-14T09:03:25;148701.28;;;9.22;100.00
21877;BME280;11103;43.788;23.710;2023-02-14T09:05:51;148752.44;;;9.42;100.00
21877;BME280;11103;43.788;23.710;2023-02-14T09:08:16;148724.31;;;9.31;100.00
21877;BME280;11103;43.788;23.710;2023-02-14T09:10:42;148770.31;;;9.49;100.00
21877;BME280;11103;43.788;23.710;2023-02-14T09:13:07;148788.25;;;9.56;100.00
21877;BME280;11103;43.788;23.710;2023-02-14T09:15:33;148772.91;;;9.50;100.00
21877;BME280;11103;43.788;23.710;2023-02-14T09:17:58;148749.88;;;9.41;100.00
21877;BME280;11103;43.788;23.710;2023-02-14T09:20:24;148738.38;;;9.37;100.00
21877;BME280;11103;43.788;23.710;2023-02-14T09:22:50;148711.53;;;9.26;100.00
21877;BME280;11103;43.788;23.710;2023-02-14T09:25:16;148756.25;;;9.44;100.00
21877;BME280;11103;43.788;23.710;2023-02-14T09:27:41;148726.84;;;9.32;100.00
21877;BME280;11103;43.788;23.710;2023-02-14T09:30:08;148757.53;;;9.44;100.00
21877;BME280;11103;43.788;23.710;2023-02-14T09:32:34;148813.81;;;9.67;100.00
21877;BME280;11103;43.788;23.710;2023-02-14T09:34:59;148836.81;;;9.76;100.00
21877;BME280;11103;43.788;23.710;2023-02-14T09:37:25;148767.75;;;9.48;100.00
21877;BME280;11103;43.788;23.710;2023-02-14T09:39:50;148739.66;;;9.37;100.00
21877;BME280;11103;43.788;23.710;2023-02-14T09:44:49;148719.22;;;9.29;100.00
21877;BME280;11103;43.788;23.710;2023-02-14T09:47:21;148765.22;;;9.47;100.00
21877;BME280;11103;43.788;23.710;2023-02-14T09:49:52;148811.25;;;9.66;100.00
21877;BME280;11103;43.788;23.710;2023-02-14T09:52:21;148834.28;;;9.75;100.00
21877;BME280;11103;43.788;23.710;2023-02-14T09:54:55;148847.06;;;9.80;100.00
21877;BME280;11103;43.788;23.710;2023-02-14T10:00:02;148839.38;;;9.77;100.00
21877;BME280;11103;43.788;23.710;2023-02-14T10:03:13;148885.41;;;9.95;100.00
21877;BME280;11103;43.788;23.710;2023-02-14T10:11:18;148990.38;;;10.36;99.15
21877;BME280;11103;43.788;23.710;2023-02-14T10:13:49;149044.13;;;10.57;97.90
21877;BME280;11103;43.788;23.710;2023-02-14T10:16:22;149110.72;;;10.84;96.91
21877;BME280;11103;43.788;23.710;2023-02-14T10:19:15;149115.81;;;10.86;96.34
21877;BME280;11103;43.788;23.710;2023-02-14T10:27:11;149009.56;;;10.44;92.63
21877;BME280;11103;43.788;23.710;2023-02-14T10:29:40;148969.91;;;10.28;92.65
21877;BME280;11103;43.788;23.710;2023-02-14T10:32:12;148946.91;;;10.19;92.52
21877;BME280;11103;43.788;23.710;2023-02-14T10:34:40;148861.13;;;9.85;93.25
21877;BME280;11103;43.788;23.710;2023-02-14T10:40:23;148894.38;;;9.98;94.68
21877;BME280;11103;43.788;23.710;2023-02-14T10:43:00;148912.31;;;10.05;92.52
21877;BME280;11103;43.788;23.710;2023-02-14T10:45:38;148960.94;;;10.25;91.74
21877;BME280;11103;43.788;23.710;2023-02-14T10:51:11;149014.72;;;10.46;91.58
21877;BME280;11103;43.788;23.710;2023-02-14T10:56:08;149074.84;;;10.69;89.96
21877;BME280;11103;43.788;23.710;2023-02-14T10:58:38;149099.16;;;10.79;84.50
21877;BME280;11103;43.788;23.710;2023-02-14T11:01:13;149120.94;;;10.88;80.84
21877;BME280;11103;43.788;23.710;2023-02-14T11:03:42;149154.22;;;11.01;79.41
21877;BME280;11103;43.788;23.710;2023-02-14T11:06:14;149161.91;;;11.04;79.14
21877;BME280;11103;43.788;23.710;2023-02-14T11:08:40;149158.06;;;11.02;80.10
21877;BME280;11103;43.788;23.710;2023-02-14T11:13:52;149182.38;;;11.12;73.40
21877;BME280;11103;43.788;23.710;2023-02-14T11:16:29;149215.72;;;11.25;75.76
21877;BME280;11103;43.788;23.710;2023-02-14T11:19:31;149154.22;;;11.01;77.15
21877;BME280;11103;43.788;23.710;2023-02-14T11:21:59;149108.13;;;10.83;78.44
21877;BME280;11103;43.788;23.710;2023-02-14T11:24:35;149092.75;;;10.76;80.84
21877;BME280;11103;43.788;23.710;2023-02-14T11:29:48;149051.81;;;10.60;81.10
21877;BME280;11103;43.788;23.710;2023-02-14T11:32:24;149103.03;;;10.81;82.69
21877;BME280;11103;43.788;23.710;2023-02-14T11:35:00;149039.00;;;10.55;80.95
21877;BME280;11103;43.788;23.710;2023-02-14T11:37:31;149074.84;;;10.69;81.31
21877;BME280;11103;43.788;23.710;2023-02-14T11:40:00;149050.50;;;10.60;81.46
21877;BME280;11103;43.788;23.710;2023-02-14T11:42:44;149059.50;;;10.63;84.33
21877;BME280;11103;43.788;23.710;2023-02-14T11:45:36;149097.91;;;10.79;83.14
21877;BME280;11103;43.788;23.710;2023-02-14T11:48:26;149123.50;;;10.89;82.23
21877;BME280;11103;43.788;23.710;2023-02-14T11:51:10;149115.81;;;10.86;79.65
21877;BME280;11103;43.788;23.710;2023-02-14T11:53:50;149149.09;;;10.99;79.21
21877;BME280;11103;43.788;23.710;2023-02-14T11:56:19;149144.00;;;10.97;78.31
21877;BME280;11103;43.788;23.710;2023-02-14T11:58:55;149138.88;;;10.95;80.02
21877;BME280;11103;43.788;23.710;2023-02-14T12:01:32;149160.66;;;11.03;80.07
21877;BME280;11103;43.788;23.710;2023-02-14T12:04:06;149174.69;;;11.09;79.79
21877;BME280;11103;43.788;23.710;2023-02-14T12:06:38;149210.56;;;11.23;79.64
21877;BME280;11103;43.788;23.710;2023-02-14T12:11:59;149277.19;;;11.49;78.69
21877;BME280;11103;43.788;23.710;2023-02-14T12:14:33;149316.88;;;11.65;78.00
21877;BME280;11103;43.788;23.710;2023-02-14T12:20:12;149379.72;;;11.89;75.65
21877;BME280;11103;43.788;23.710;2023-02-14T12:22:45;149400.22;;;11.98;75.58
21877;BME280;11103;43.788;23.710;2023-02-14T12:25:19;149430.94;;;12.10;77.43
21877;BME280;11103;43.788;23.710;2023-02-14T12:27:56;149424.53;;;12.07;75.33
21877;BME280;11103;43.788;23.710;2023-02-14T12:30:24;149370.72;;;11.86;74.52
21877;BME280;11103;43.788;23.710;2023-02-14T12:32:52;149337.44;;;11.73;74.61
21877;BME280;11103;43.788;23.710;2023-02-14T12:35:26;149283.59;;;11.52;74.76
21877;BME280;11103;43.788;23.710;2023-02-14T12:38:13;149336.13;;;11.72;74.50
21877;BME280;11103;43.788;23.710;2023-02-14T12:43:24;149341.25;;;11.74;76.01
21877;BME280;11103;43.788;23.710;2023-02-14T12:59:57;149315.59;;;11.64;78.59
21877;BME280;11103;43.788;23.710;2023-02-14T13:07:48;149361.75;;;11.82;76.40
21877;BME280;11103;43.788;23.710;2023-02-14T13:13:05;149378.44;;;11.89;76.56
21877;BME280;11103;43.788;23.710;2023-02-14T13:15:46;149420.72;;;12.06;77.90
21877;BME280;11103;43.788;23.710;2023-02-14T13:21:02;149465.56;;;12.23;73.37
21877;BME280;11103;43.788;23.710;2023-02-14T13:26:09;149574.56;;;12.66;73.51
21877;BME280;11103;43.788;23.710;2023-02-14T13:28:36;149562.97;;;12.62;71.68
21877;BME280;11103;43.788;23.710;2023-02-14T13:31:03;149564.28;;;12.62;71.63
21877;BME280;11103;43.788;23.710;2023-02-14T13:33:35;149613.00;;;12.81;71.63
21877;BME280;11103;43.788;23.710;2023-02-14T13:36:05;149613.00;;;12.81;74.00
21877;BME280;11103;43.788;23.710;2023-02-14T13:38:37;149589.91;;;12.72;71.33
21877;BME280;11103;43.788;23.710;2023-02-14T13:41:06;149516.84;;;12.43;69.99
21877;BME280;11103;43.788;23.710;2023-02-14T13:43:59;149560.44;;;12.61;71.21
21877;BME280;11103;43.788;23.710;2023-02-14T13:49:00;149595.06;;;12.74;72.00
21877;BME280;11103;43.788;23.710;2023-02-14T13:51:48;149647.63;;;12.95;72.02
21877;BME280;11103;43.788;23.710;2023-02-14T13:57:41;149624.53;;;12.86;71.30
21877;BME280;11103;43.788;23.710;2023-02-14T14:02:51;149536.06;;;12.51;70.56
21877;BME280;11103;43.788;23.710;2023-02-14T14:21:35;149434.81;;;12.11;72.30
21877;BME280;11103;43.788;23.710;2023-02-14T14:26:39;149372.03;;;11.86;72.87
21877;BME280;11103;43.788;23.710;2023-02-14T14:31:48;149364.34;;;11.83;81.90
21877;BME280;11103;43.788;23.710;2023-02-14T14:34:21;149377.13;;;11.88;85.98
21877;BME280;11103;43.788;23.710;2023-02-14T14:36:49;149333.56;;;11.71;87.73
21877;BME280;11103;43.788;23.710;2023-02-14T14:39:35;149301.50;;;11.59;89.85
21877;BME280;11103;43.788;23.710;2023-02-14T14:42:08;149275.91;;;11.49;91.36
21877;BME280;11103;43.788;23.710;2023-02-14T14:44:47;149259.22;;;11.42;92.98
21877;BME280;11103;43.788;23.710;2023-02-14T14:47:28;149246.41;;;11.37;95.22
21877;BME280;11103;43.788;23.710;2023-02-14T14:50:02;149169.59;;;11.07;96.49
21877;BME280;11103;43.788;23.710;2023-02-14T14:52:47;149118.41;;;10.87;98.36
21877;BME280;11103;43.788;23.710;2023-02-14T14:55:20;149109.41;;;10.83;99.38
21877;BME280;11103;43.788;23.710;2023-02-14T14:57:57;149069.75;;;10.67;100.00
21877;BME280;11103;43.788;23.710;2023-02-14T15:00:30;149051.81;;;10.60;100.00
21877;BME280;11103;43.788;23.710;2023-02-14T15:03:15;149021.13;;;10.48;100.00
21877;BME280;11103;43.788;23.710;2023-02-14T15:05:49;148964.81;;;10.26;100.00
21877;BME280;11103;43.788;23.710;2023-02-14T15:11:10;148911.03;;;10.05;100.00
21877;BME280;11103;43.788;23.710;2023-02-14T15:13:43;148831.69;;;9.74;100.00
21877;BME280;11103;43.788;23.710;2023-02-14T15:16:21;148836.81;;;9.76;100.00
21877;BME280;11103;43.788;23.710;2023-02-14T15:18:48;148792.06;;;9.58;100.00